Terminal Aerodrome Forecast
Issued by NWS Upton, NY

Home | Current Version | Previous Version | Text Only | Print | Product List | Glossary On
Versions: 1 2 3 4 5 6 7 8 9 10 11 12 13 14 15 16 17 18 19 20 21 22 23 24 25 26 27 28 29 30 31 32 33 34 35 36
000
FTUS41 KOKX 050529
TAFEWR
TAF
KEWR 050529Z 0506/0612 04010KT P6SM SCT008 OVC015
     FM050800 02012KT P6SM SCT008 OVC015
     FM051100 02013G18KT P6SM SCT008 OVC015
     FM051300 03012G20KT P6SM OVC015
     FM052200 03009KT P6SM OVC015
     FM060600 03008KT 5SM -RA BR SCT007 OVC010=

USA.gov is the U.S. government's official web portal to all federal, state and local government web resources and services.